sensor_id;sensor_type;location;lat;lon;timestamp;P1;durP1;ratioP1;P2;durP2;ratioP2
4325;SDS011;58429;49.826;10.880;2022-08-21T00:00:53;9.9;;;2.7;;
4325;SDS011;58429;49.826;10.880;2022-08-21T00:01:53;7.7;;;2.7;;
4325;SDS011;58429;49.826;10.880;2022-08-21T00:02:54;7.7;;;2.7;;
4325;SDS011;58429;49.826;10.880;2022-08-21T00:03:53;7.7;;;2.7;;
4325;SDS011;58429;49.826;10.880;2022-08-21T00:04:53;7.3;;;2.6;;
4325;SDS011;58429;49.826;10.880;2022-08-21T00:05:53;7.3;;;2.6;;
4325;SDS011;58429;49.826;10.880;2022-08-21T00:06:53;7.3;;;2.6;;
4325;SDS011;58429;49.826;10.880;2022-08-21T00:07:53;6.6;;;2.5;;
4325;SDS011;58429;49.826;10.880;2022-08-21T00:08:53;6.6;;;2.5;;
4325;SDS011;58429;49.826;10.880;2022-08-21T00:09:53;6.6;;;2.5;;
4325;SDS011;58429;49.826;10.880;2022-08-21T00:10:53;8.6;;;2.4;;
4325;SDS011;58429;49.826;10.880;2022-08-21T00:11:53;8.6;;;2.4;;
4325;SDS011;58429;49.826;10.880;2022-08-21T00:12:53;8.6;;;2.4;;
4325;SDS011;58429;49.826;10.880;2022-08-21T00:13:53;7.5;;;2.7;;
4325;SDS011;58429;49.826;10.880;2022-08-21T00:14:53;7.5;;;2.7;;
4325;SDS011;58429;49.826;10.880;2022-08-21T00:15:53;7.5;;;2.7;;
4325;SDS011;58429;49.826;10.880;2022-08-21T00:16:53;8.7;;;3.1;;
4325;SDS011;58429;49.826;10.880;2022-08-21T00:17:53;8.7;;;3.1;;
4325;SDS011;58429;49.826;10.880;2022-08-21T00:18:53;8.7;;;3.1;;
4325;SDS011;58429;49.826;10.880;2022-08-21T00:19:53;8.6;;;2.9;;
4325;SDS011;58429;49.826;10.880;2022-08-21T00:20:53;8.6;;;2.9;;
4325;SDS011;58429;49.826;10.880;2022-08-21T00:21:54;8.6;;;2.9;;
4325;SDS011;58429;49.826;10.880;2022-08-21T00:22:53;8.9;;;3.3;;
4325;SDS011;58429;49.826;10.880;2022-08-21T00:23:53;8.9;;;3.3;;
4325;SDS011;58429;49.826;10.880;2022-08-21T00:24:53;8.9;;;3.3;;
4325;SDS011;58429;49.826;10.880;2022-08-21T00:25:53;8.8;;;3.1;;
4325;SDS011;58429;49.826;10.880;2022-08-21T00:26:53;8.8;;;3.1;;
4325;SDS011;58429;49.826;10.880;2022-08-21T00:27:53;8.8;;;3.1;;
4325;SDS011;58429;49.826;10.880;2022-08-21T00:28:53;8.1;;;3;;
4325;SDS011;58429;49.826;10.880;2022-08-21T00:29:53;8.1;;;3;;
4325;SDS011;58429;49.826;10.880;2022-08-21T00:30:53;8.1;;;3;;
4325;SDS011;58429;49.826;10.880;2022-08-21T00:31:53;8.9;;;3.1;;
4325;SDS011;58429;49.826;10.880;2022-08-21T00:32:53;8.9;;;3.1;;
4325;SDS011;58429;49.826;10.880;2022-08-21T00:33:53;8.9;;;3.1;;
4325;SDS011;58429;49.826;10.880;2022-08-21T00:34:53;8.1;;;3.1;;
4325;SDS011;58429;49.826;10.880;2022-08-21T00:35:53;8.1;;;3.1;;
4325;SDS011;58429;49.826;10.880;2022-08-21T00:36:53;8.1;;;3.1;;
4325;SDS011;58429;49.826;10.880;2022-08-21T00:37:53;8.5;;;3.1;;
4325;SDS011;58429;49.826;10.880;2022-08-21T00:38:53;8.5;;;3.1;;
4325;SDS011;58429;49.826;10.880;2022-08-21T00:39:53;8.5;;;3.1;;
4325;SDS011;58429;49.826;10.880;2022-08-21T00:40:54;7.1;;;2.8;;
4325;SDS011;58429;49.826;10.880;2022-08-21T00:41:53;7.1;;;2.8;;
4325;SDS011;58429;49.826;10.880;2022-08-21T00:42:53;7.1;;;2.8;;
4325;SDS011;58429;49.826;10.880;2022-08-21T00:43:53;8.4;;;3;;
4325;SDS011;58429;49.826;10.880;2022-08-21T00:44:53;8.4;;;3;;
4325;SDS011;58429;49.826;10.880;2022-08-21T00:45:53;8.4;;;3;;
4325;SDS011;58429;49.826;10.880;2022-08-21T00:46:53;7.2;;;2.7;;
4325;SDS011;58429;49.826;10.880;2022-08-21T00:47:53;7.2;;;2.7;;
4325;SDS011;58429;49.826;10.880;2022-08-21T00:48:53;7.2;;;2.7;;
4325;SDS011;58429;49.826;10.880;2022-08-21T00:49:53;9.1;;;3.2;;
4325;SDS011;58429;49.826;10.880;2022-08-21T00:50:55;9.1;;;3.2;;
4325;SDS011;58429;49.826;10.880;2022-08-21T00:51:54;9.1;;;3.2;;
4325;SDS011;58429;49.826;10.880;2022-08-21T00:52:53;9.1;;;3.3;;
4325;SDS011;58429;49.826;10.880;2022-08-21T00:53:54;9.1;;;3.3;;
4325;SDS011;58429;49.826;10.880;2022-08-21T00:54:53;9.1;;;3.3;;
4325;SDS011;58429;49.826;10.880;2022-08-21T00:55:53;9.8;;;3.8;;
4325;SDS011;58429;49.826;10.880;2022-08-21T00:56:54;9.8;;;3.8;;
4325;SDS011;58429;49.826;10.880;2022-08-21T00:57:54;9.8;;;3.8;;
4325;SDS011;58429;49.826;10.880;2022-08-21T00:58:53;9.3;;;3.4;;
4325;SDS011;58429;49.826;10.880;2022-08-21T00:59:54;9.3;;;3.4;;
4325;SDS011;58429;49.826;10.880;2022-08-21T01:00:53;9.3;;;3.4;;
4325;SDS011;58429;49.826;10.880;2022-08-21T01:01:53;10.8;;;3.4;;
4325;SDS011;58429;49.826;10.880;2022-08-21T01:02:53;10.8;;;3.4;;
4325;SDS011;58429;49.826;10.880;2022-08-21T01:03:53;10.8;;;3.4;;
4325;SDS011;58429;49.826;10.880;2022-08-21T01:04:53;8;;;3;;
4325;SDS011;58429;49.826;10.880;2022-08-21T01:05:53;8;;;3;;
4325;SDS011;58429;49.826;10.880;2022-08-21T01:06:53;8;;;3;;
4325;SDS011;58429;49.826;10.880;2022-08-21T01:07:53;8.1;;;2.8;;
4325;SDS011;58429;49.826;10.880;2022-08-21T01:08:53;8.1;;;2.8;;
4325;SDS011;58429;49.826;10.880;2022-08-21T01:09:53;8.1;;;2.8;;
4325;SDS011;58429;49.826;10.880;2022-08-21T01:10:53;7.7;;;2.7;;
4325;SDS011;58429;49.826;10.880;2022-08-21T01:11:53;7.7;;;2.7;;
4325;SDS011;58429;49.826;10.880;2022-08-21T01:12:54;7.7;;;2.7;;
4325;SDS011;58429;49.826;10.880;2022-08-21T01:13:53;7.9;;;2.8;;
4325;SDS011;58429;49.826;10.880;2022-08-21T01:14:53;7.9;;;2.8;;
4325;SDS011;58429;49.826;10.880;2022-08-21T01:15:54;7.9;;;2.8;;
4325;SDS011;58429;49.826;10.880;2022-08-21T01:16:53;7.9;;;2.8;;
4325;SDS011;58429;49.826;10.880;2022-08-21T01:17:53;8.3;;;2.7;;
4325;SDS011;58429;49.826;10.880;2022-08-21T01:18:53;8.3;;;2.7;;
4325;SDS011;58429;49.826;10.880;2022-08-21T01:19:56;8.3;;;2.7;;
4325;SDS011;58429;49.826;10.880;2022-08-21T01:20:59;8;;;2.8;;
4325;SDS011;58429;49.826;10.880;2022-08-21T01:21:53;8;;;2.8;;
4325;SDS011;58429;49.826;10.880;2022-08-21T01:22:53;8;;;2.8;;
4325;SDS011;58429;49.826;10.880;2022-08-21T01:23:53;7.5;;;2.7;;
4325;SDS011;58429;49.826;10.880;2022-08-21T01:24:53;7.5;;;2.7;;
4325;SDS011;58429;49.826;10.880;2022-08-21T01:25:53;7.5;;;2.7;;
4325;SDS011;58429;49.826;10.880;2022-08-21T01:26:53;7.6;;;2.8;;
4325;SDS011;58429;49.826;10.880;2022-08-21T01:27:53;7.6;;;2.8;;
4325;SDS011;58429;49.826;10.880;2022-08-21T01:28:54;7.6;;;2.8;;
4325;SDS011;58429;49.826;10.880;2022-08-21T01:29:56;7;;;3;;
4325;SDS011;58429;49.826;10.880;2022-08-21T01:30:53;7;;;3;;
4325;SDS011;58429;49.826;10.880;2022-08-21T01:31:53;7;;;3;;
4325;SDS011;58429;49.826;10.880;2022-08-21T01:32:53;7.4;;;2.7;;
4325;SDS011;58429;49.826;10.880;2022-08-21T01:33:54;7.4;;;2.7;;
4325;SDS011;58429;49.826;10.880;2022-08-21T01:34:53;7.4;;;2.7;;
4325;SDS011;58429;49.826;10.880;2022-08-21T01:35:53;6.9;;;2.8;;
4325;SDS011;58429;49.826;10.880;2022-08-21T01:36:53;6.9;;;2.8;;
4325;SDS011;58429;49.826;10.880;2022-08-21T01:37:53;6.9;;;2.8;;
4325;SDS011;58429;49.826;10.880;2022-08-21T01:38:53;6.7;;;2.5;;
4325;SDS011;58429;49.826;10.880;2022-08-21T01:39:53;6.7;;;2.5;;
4325;SDS011;58429;49.826;10.880;2022-08-21T01:40:53;6.7;;;2.5;;
4325;SDS011;58429;49.826;10.880;2022-08-21T01:41:53;6.1;;;2.4;;
4325;SDS011;58429;49.826;10.880;2022-08-21T01:42:53;6.1;;;2.4;;
4325;SDS011;58429;49.826;10.880;2022-08-21T01:43:53;6.1;;;2.4;;
4325;SDS011;58429;49.826;10.880;2022-08-21T01:44:53;7.1;;;2.3;;
4325;SDS011;58429;49.826;10.880;2022-08-21T01:45:53;7.1;;;2.3;;
4325;SDS011;58429;49.826;10.880;2022-08-21T01:46:53;7.1;;;2.3;;
4325;SDS011;58429;49.826;10.880;2022-08-21T01:47:53;7.2;;;2.6;;
4325;SDS011;58429;49.826;10.880;2022-08-21T01:48:53;7.2;;;2.6;;
4325;SDS011;58429;49.826;10.880;2022-08-21T01:49:53;7.2;;;2.6;;
4325;SDS011;58429;49.826;10.880;2022-08-21T01:50:53;7.6;;;2.6;;
4325;SDS011;58429;49.826;10.880;2022-08-21T01:51:53;7.6;;;2.6;;
4325;SDS011;58429;49.826;10.880;2022-08-21T01:52:53;7.6;;;2.6;;
4325;SDS011;58429;49.826;10.880;2022-08-21T01:53:53;7.4;;;2.5;;
4325;SDS011;58429;49.826;10.880;2022-08-21T01:54:53;7.4;;;2.5;;
4325;SDS011;58429;49.826;10.880;2022-08-21T01:55:53;7.4;;;2.5;;
4325;SDS011;58429;49.826;10.880;2022-08-21T01:56:53;6.9;;;2.5;;
4325;SDS011;58429;49.826;10.880;2022-08-21T01:57:53;6.9;;;2.5;;
4325;SDS011;58429;49.826;10.880;2022-08-21T01:58:53;6.9;;;2.5;;
4325;SDS011;58429;49.826;10.880;2022-08-21T01:59:53;7.6;;;2.8;;
4325;SDS011;58429;49.826;10.880;2022-08-21T02:00:53;7.6;;;2.8;;
4325;SDS011;58429;49.826;10.880;2022-08-21T02:01:53;7.6;;;2.8;;
4325;SDS011;58429;49.826;10.880;2022-08-21T02:02:53;6.9;;;2.5;;
4325;SDS011;58429;49.826;10.880;2022-08-21T02:03:53;6.9;;;2.5;;
4325;SDS011;58429;49.826;10.880;2022-08-21T02:04:53;6.9;;;2.5;;
4325;SDS011;58429;49.826;10.880;2022-08-21T02:05:53;7.7;;;2.7;;
4325;SDS011;58429;49.826;10.880;2022-08-21T02:06:53;7.7;;;2.7;;
4325;SDS011;58429;49.826;10.880;2022-08-21T02:07:53;7.7;;;2.7;;
4325;SDS011;58429;49.826;10.880;2022-08-21T02:08:53;6.8;;;2.4;;
4325;SDS011;58429;49.826;10.880;2022-08-21T02:09:53;6.8;;;2.4;;
4325;SDS011;58429;49.826;10.880;2022-08-21T02:10:53;6.8;;;2.4;;
4325;SDS011;58429;49.826;10.880;2022-08-21T02:11:53;6.5;;;2.4;;
4325;SDS011;58429;49.826;10.880;2022-08-21T02:12:53;6.5;;;2.4;;
4325;SDS011;58429;49.826;10.880;2022-08-21T02:13:53;6.5;;;2.4;;
4325;SDS011;58429;49.826;10.880;2022-08-21T02:14:53;7.3;;;2.8;;
4325;SDS011;58429;49.826;10.880;2022-08-21T02:15:53;7.3;;;2.8;;
4325;SDS011;58429;49.826;10.880;2022-08-21T02:16:53;7.3;;;2.8;;
4325;SDS011;58429;49.826;10.880;2022-08-21T02:17:54;7.8;;;2.9;;
4325;SDS011;58429;49.826;10.880;2022-08-21T02:18:53;7.8;;;2.9;;
4325;SDS011;58429;49.826;10.880;2022-08-21T02:19:53;7.8;;;2.9;;
4325;SDS011;58429;49.826;10.880;2022-08-21T02:20:53;7.1;;;2.7;;
4325;SDS011;58429;49.826;10.880;2022-08-21T02:21:53;7.1;;;2.7;;
4325;SDS011;58429;49.826;10.880;2022-08-21T02:22:54;7.1;;;2.7;;
4325;SDS011;58429;49.826;10.880;2022-08-21T02:23:53;7.4;;;2.4;;
4325;SDS011;58429;49.826;10.880;2022-08-21T02:24:54;7.4;;;2.4;;
4325;SDS011;58429;49.826;10.880;2022-08-21T02:25:53;7.4;;;2.4;;
4325;SDS011;58429;49.826;10.880;2022-08-21T02:26:53;7.4;;;2.4;;
4325;SDS011;58429;49.826;10.880;2022-08-21T02:27:54;7.4;;;2.4;;
4325;SDS011;58429;49.826;10.880;2022-08-21T02:28:53;7.4;;;2.4;;
4325;SDS011;58429;49.826;10.880;2022-08-21T02:29:54;7.4;;;2.8;;
4325;SDS011;58429;49.826;10.880;2022-08-21T02:30:54;7.4;;;2.8;;
4325;SDS011;58429;49.826;10.880;2022-08-21T02:31:53;7.4;;;2.8;;
4325;SDS011;58429;49.826;10.880;2022-08-21T02:32:53;7.2;;;2.7;;
4325;SDS011;58429;49.826;10.880;2022-08-21T02:33:53;7.2;;;2.7;;
4325;SDS011;58429;49.826;10.880;2022-08-21T02:34:53;7.2;;;2.7;;
4325;SDS011;58429;49.826;10.880;2022-08-21T02:35:54;7.6;;;2.7;;
4325;SDS011;58429;49.826;10.880;2022-08-21T02:36:53;7.6;;;2.7;;
4325;SDS011;58429;49.826;10.880;2022-08-21T02:37:58;7.6;;;2.7;;
4325;SDS011;58429;49.826;10.880;2022-08-21T02:38:53;7;;;2.5;;
4325;SDS011;58429;49.826;10.880;2022-08-21T02:39:53;7;;;2.5;;
4325;SDS011;58429;49.826;10.880;2022-08-21T02:40:54;7;;;2.5;;
4325;SDS011;58429;49.826;10.880;2022-08-21T02:41:53;6.8;;;2.6;;
4325;SDS011;58429;49.826;10.880;2022-08-21T02:42:53;6.8;;;2.6;;
4325;SDS011;58429;49.826;10.880;2022-08-21T02:43:53;6.8;;;2.6;;
4325;SDS011;58429;49.826;10.880;2022-08-21T02:44:53;7.1;;;2.6;;
4325;SDS011;58429;49.826;10.880;2022-08-21T02:45:54;7.1;;;2.6;;
4325;SDS011;58429;49.826;10.880;2022-08-21T02:46:53;7.1;;;2.6;;
4325;SDS011;58429;49.826;10.880;2022-08-21T02:47:55;7.6;;;3;;
4325;SDS011;58429;49.826;10.880;2022-08-21T02:48:53;7.6;;;3;;
4325;SDS011;58429;49.826;10.880;2022-08-21T02:49:53;7.6;;;3;;
4325;SDS011;58429;49.826;10.880;2022-08-21T02:50:54;8;;;2.8;;
4325;SDS011;58429;49.826;10.880;2022-08-21T02:51:53;8;;;2.8;;
4325;SDS011;58429;49.826;10.880;2022-08-21T02:52:53;8;;;2.8;;
4325;SDS011;58429;49.826;10.880;2022-08-21T02:53:53;11.1;;;2.8;;
4325;SDS011;58429;49.826;10.880;2022-08-21T02:54:53;11.1;;;2.8;;
4325;SDS011;58429;49.826;10.880;2022-08-21T02:55:53;11.1;;;2.8;;
4325;SDS011;58429;49.826;10.880;2022-08-21T02:56:54;8.5;;;3.4;;
4325;SDS011;58429;49.826;10.880;2022-08-21T02:57:54;8.5;;;3.4;;
4325;SDS011;58429;49.826;10.880;2022-08-21T02:58:53;8.5;;;3.4;;
4325;SDS011;58429;49.826;10.880;2022-08-21T02:59:53;7.4;;;2.8;;
4325;SDS011;58429;49.826;10.880;2022-08-21T03:00:54;7.4;;;2.8;;
4325;SDS011;58429;49.826;10.880;2022-08-21T03:01:53;7.4;;;2.8;;
4325;SDS011;58429;49.826;10.880;2022-08-21T03:02:54;7.2;;;2.5;;
4325;SDS011;58429;49.826;10.880;2022-08-21T03:03:53;7.2;;;2.5;;
4325;SDS011;58429;49.826;10.880;2022-08-21T03:04:53;7.2;;;2.5;;
4325;SDS011;58429;49.826;10.880;2022-08-21T03:05:53;6.8;;;2.5;;
4325;SDS011;58429;49.826;10.880;2022-08-21T03:06:53;6.8;;;2.5;;
4325;SDS011;58429;49.826;10.880;2022-08-21T03:07:54;6.8;;;2.5;;
4325;SDS011;58429;49.826;10.880;2022-08-21T03:08:53;7.7;;;2.7;;
4325;SDS011;58429;49.826;10.880;2022-08-21T03:09:53;7.7;;;2.7;;
4325;SDS011;58429;49.826;10.880;2022-08-21T03:10:54;7.7;;;2.7;;
4325;SDS011;58429;49.826;10.880;2022-08-21T03:11:53;7.6;;;2.6;;
4325;SDS011;58429;49.826;10.880;2022-08-21T03:12:54;7.6;;;2.6;;
4325;SDS011;58429;49.826;10.880;2022-08-21T03:13:53;7.6;;;2.6;;
4325;SDS011;58429;49.826;10.880;2022-08-21T03:14:53;7.7;;;2.6;;
4325;SDS011;58429;49.826;10.880;2022-08-21T03:15:53;7.7;;;2.6;;
4325;SDS011;58429;49.826;10.880;2022-08-21T03:16:53;7.7;;;2.6;;
4325;SDS011;58429;49.826;10.880;2022-08-21T03:17:54;7.7;;;2.6;;
4325;SDS011;58429;49.826;10.880;2022-08-21T03:18:54;7.6;;;2.5;;
4325;SDS011;58429;49.826;10.880;2022-08-21T03:19:53;7.6;;;2.5;;
4325;SDS011;58429;49.826;10.880;2022-08-21T03:20:53;7.6;;;2.5;;
4325;SDS011;58429;49.826;10.880;2022-08-21T03:21:53;8;;;3.1;;
4325;SDS011;58429;49.826;10.880;2022-08-21T03:22:54;8;;;3.1;;
4325;SDS011;58429;49.826;10.880;2022-08-21T03:23:53;8;;;3.1;;
4325;SDS011;58429;49.826;10.880;2022-08-21T03:24:54;7.8;;;2.8;;
4325;SDS011;58429;49.826;10.880;2022-08-21T03:25:53;7.8;;;2.8;;
4325;SDS011;58429;49.826;10.880;2022-08-21T03:26:54;7.8;;;2.8;;
4325;SDS011;58429;49.826;10.880;2022-08-21T03:27:53;8;;;3;;
4325;SDS011;58429;49.826;10.880;2022-08-21T03:28:54;8;;;3;;
4325;SDS011;58429;49.826;10.880;2022-08-21T03:29:53;8;;;3;;
4325;SDS011;58429;49.826;10.880;2022-08-21T03:30:54;7.5;;;2.6;;
4325;SDS011;58429;49.826;10.880;2022-08-21T03:31:53;7.5;;;2.6;;
4325;SDS011;58429;49.826;10.880;2022-08-21T03:32:53;7.5;;;2.6;;
4325;SDS011;58429;49.826;10.880;2022-08-21T03:33:53;7.9;;;2.9;;
4325;SDS011;58429;49.826;10.880;2022-08-21T03:34:54;7.9;;;2.9;;
4325;SDS011;58429;49.826;10.880;2022-08-21T03:35:56;7.9;;;2.9;;
4325;SDS011;58429;49.826;10.880;2022-08-21T03:36:53;7.4;;;2.8;;
4325;SDS011;58429;49.826;10.880;2022-08-21T03:37:54;7.4;;;2.8;;
4325;SDS011;58429;49.826;10.880;2022-08-21T03:38:53;7.4;;;2.8;;
4325;SDS011;58429;49.826;10.880;2022-08-21T03:39:54;7.5;;;2.7;;
4325;SDS011;58429;49.826;10.880;2022-08-21T03:40:54;7.5;;;2.7;;
4325;SDS011;58429;49.826;10.880;2022-08-21T03:41:54;7.5;;;2.7;;
4325;SDS011;58429;49.826;10.880;2022-08-21T03:42:54;8.4;;;2.6;;
4325;SDS011;58429;49.826;10.880;2022-08-21T03:43:53;8.4;;;2.6;;
4325;SDS011;58429;49.826;10.880;2022-08-21T03:44:54;8.4;;;2.6;;
4325;SDS011;58429;49.826;10.880;2022-08-21T03:45:53;9.1;;;2.9;;
4325;SDS011;58429;49.826;10.880;2022-08-21T03:46:54;9.1;;;2.9;;
4325;SDS011;58429;49.826;10.880;2022-08-21T03:47:55;9.1;;;2.9;;
4325;SDS011;58429;49.826;10.880;2022-08-21T03:48:54;7.3;;;2.6;;
4325;SDS011;58429;49.826;10.880;2022-08-21T03:49:54;7.3;;;2.6;;
4325;SDS011;58429;49.826;10.880;2022-08-21T03:50:54;7.3;;;2.6;;
4325;SDS011;58429;49.826;10.880;2022-08-21T03:51:54;7.5;;;2.3;;
4325;SDS011;58429;49.826;10.880;2022-08-21T03:52:54;7.5;;;2.3;;
4325;SDS011;58429;49.826;10.880;2022-08-21T03:53:54;7.5;;;2.3;;
4325;SDS011;58429;49.826;10.880;2022-08-21T03:54:54;7;;;2.3;;
4325;SDS011;58429;49.826;10.880;2022-08-21T03:55:54;7;;;2.3;;
4325;SDS011;58429;49.826;10.880;2022-08-21T03:56:54;7;;;2.3;;
4325;SDS011;58429;49.826;10.880;2022-08-21T03:57:54;7.2;;;2.6;;
4325;SDS011;58429;49.826;10.880;2022-08-21T03:58:54;7.2;;;2.6;;
4325;SDS011;58429;49.826;10.880;2022-08-21T03:59:54;7.2;;;2.6;;
4325;SDS011;58429;49.826;10.880;2022-08-21T04:00:55;9.1;;;2.7;;
4325;SDS011;58429;49.826;10.880;2022-08-21T04:01:54;9.1;;;2.7;;
4325;SDS011;58429;49.826;10.880;2022-08-21T04:02:54;9.1;;;2.7;;
4325;SDS011;58429;49.826;10.880;2022-08-21T04:03:54;8.5;;;2.8;;
4325;SDS011;58429;49.826;10.880;2022-08-21T04:04:54;8.5;;;2.8;;
4325;SDS011;58429;49.826;10.880;2022-08-21T04:05:54;8.5;;;2.8;;
4325;SDS011;58429;49.826;10.880;2022-08-21T04:06:54;7.3;;;2.6;;
4325;SDS011;58429;49.826;10.880;2022-08-21T04:07:55;7.3;;;2.6;;
4325;SDS011;58429;49.826;10.880;2022-08-21T04:08:54;7.3;;;2.6;;
4325;SDS011;58429;49.826;10.880;2022-08-21T04:09:54;7.8;;;3;;
4325;SDS011;58429;49.826;10.880;2022-08-21T04:10:54;7.8;;;3;;
4325;SDS011;58429;49.826;10.880;2022-08-21T04:11:54;7.8;;;3;;
4325;SDS011;58429;49.826;10.880;2022-08-21T04:12:54;7.8;;;2.6;;
4325;SDS011;58429;49.826;10.880;2022-08-21T04:13:54;7.8;;;2.6;;
4325;SDS011;58429;49.826;10.880;2022-08-21T04:14:54;7.8;;;2.6;;
4325;SDS011;58429;49.826;10.880;2022-08-21T04:15:54;7.7;;;2.7;;
4325;SDS011;58429;49.826;10.880;2022-08-21T04:16:54;7.7;;;2.7;;
4325;SDS011;58429;49.826;10.880;2022-08-21T04:17:54;7.7;;;2.7;;
4325;SDS011;58429;49.826;10.880;2022-08-21T04:18:54;7.1;;;2.4;;
4325;SDS011;58429;49.826;10.880;2022-08-21T04:19:54;7.1;;;2.4;;
4325;SDS011;58429;49.826;10.880;2022-08-21T04:20:54;7.1;;;2.4;;
4325;SDS011;58429;49.826;10.880;2022-08-21T04:21:54;7;;;2.5;;
4325;SDS011;58429;49.826;10.880;2022-08-21T04:22:54;7;;;2.5;;
4325;SDS011;58429;49.826;10.880;2022-08-21T04:23:54;7;;;2.5;;
4325;SDS011;58429;49.826;10.880;2022-08-21T04:24:54;8.1;;;2.9;;
4325;SDS011;58429;49.826;10.880;2022-08-21T04:25:55;8.1;;;2.9;;
4325;SDS011;58429;49.826;10.880;2022-08-21T04:26:54;8.1;;;2.9;;
4325;SDS011;58429;49.826;10.880;2022-08-21T04:27:54;7.8;;;2.8;;
4325;SDS011;58429;49.826;10.880;2022-08-21T04:28:54;7.8;;;2.8;;
4325;SDS011;58429;49.826;10.880;2022-08-21T04:29:54;7.8;;;2.8;;
4325;SDS011;58429;49.826;10.880;2022-08-21T04:30:54;8.9;;;2.6;;
4325;SDS011;58429;49.826;10.880;2022-08-21T04:31:54;8.9;;;2.6;;
4325;SDS011;58429;49.826;10.880;2022-08-21T04:32:54;8.9;;;2.6;;
4325;SDS011;58429;49.826;10.880;2022-08-21T04:33:54;7;;;2.7;;
4325;SDS011;58429;49.826;10.880;2022-08-21T04:34:57;7;;;2.7;;
4325;SDS011;58429;49.826;10.880;2022-08-21T04:35:54;7;;;2.7;;
4325;SDS011;58429;49.826;10.880;2022-08-21T04:36:54;7.4;;;2.5;;
4325;SDS011;58429;49.826;10.880;2022-08-21T04:37:54;7.4;;;2.5;;
4325;SDS011;58429;49.826;10.880;2022-08-21T04:38:54;7.4;;;2.5;;
4325;SDS011;58429;49.826;10.880;2022-08-21T04:39:54;8.1;;;2.7;;
4325;SDS011;58429;49.826;10.880;2022-08-21T04:40:54;8.1;;;2.7;;
4325;SDS011;58429;49.826;10.880;2022-08-21T04:41:54;8.1;;;2.7;;
4325;SDS011;58429;49.826;10.880;2022-08-21T04:42:55;8.2;;;3.1;;
4325;SDS011;58429;49.826;10.880;2022-08-21T04:43:54;8.2;;;3.1;;
4325;SDS011;58429;49.826;10.880;2022-08-21T04:44:54;8.2;;;3.1;;
4325;SDS011;58429;49.826;10.880;2022-08-21T04:45:54;7.7;;;2.8;;
4325;SDS011;58429;49.826;10.880;2022-08-21T04:46:54;7.7;;;2.8;;
4325;SDS011;58429;49.826;10.880;2022-08-21T04:47:54;7.7;;;2.8;;
4325;SDS011;58429;49.826;10.880;2022-08-21T04:48:54;7.9;;;2.6;;
4325;SDS011;58429;49.826;10.880;2022-08-21T04:49:54;7.9;;;2.6;;
4325;SDS011;58429;49.826;10.880;2022-08-21T04:50:54;7.9;;;2.6;;
4325;SDS011;58429;49.826;10.880;2022-08-21T04:51:54;7;;;2.4;;
4325;SDS011;58429;49.826;10.880;2022-08-21T04:52:54;7;;;2.4;;
4325;SDS011;58429;49.826;10.880;2022-08-21T04:53:55;7;;;2.4;;
4325;SDS011;58429;49.826;10.880;2022-08-21T04:54:54;7.7;;;2.6;;
4325;SDS011;58429;49.826;10.880;2022-08-21T04:55:54;7.7;;;2.6;;
4325;SDS011;58429;49.826;10.880;2022-08-21T04:56:54;7.7;;;2.6;;
4325;SDS011;58429;49.826;10.880;2022-08-21T04:57:54;8.1;;;2.9;;
4325;SDS011;58429;49.826;10.880;2022-08-21T04:58:54;8.1;;;2.9;;
4325;SDS011;58429;49.826;10.880;2022-08-21T04:59:54;8.1;;;2.9;;
4325;SDS011;58429;49.826;10.880;2022-08-21T05:00:54;7.4;;;2.5;;
4325;SDS011;58429;49.826;10.880;2022-08-21T05:01:54;7.4;;;2.5;;
4325;SDS011;58429;49.826;10.880;2022-08-21T05:02:54;7.4;;;2.5;;
4325;SDS011;58429;49.826;10.880;2022-08-21T05:03:55;8.4;;;3;;
4325;SDS011;58429;49.826;10.880;2022-08-21T05:04:54;8.4;;;3;;
4325;SDS011;58429;49.826;10.880;2022-08-21T05:05:54;8.4;;;3;;
4325;SDS011;58429;49.826;10.880;2022-08-21T05:06:55;7.7;;;2.7;;
4325;SDS011;58429;49.826;10.880;2022-08-21T05:07:54;7.7;;;2.7;;
4325;SDS011;58429;49.826;10.880;2022-08-21T05:08:54;7.7;;;2.7;;
4325;SDS011;58429;49.826;10.880;2022-08-21T05:09:54;7.6;;;2.9;;
4325;SDS011;58429;49.826;10.880;2022-08-21T05:10:54;7.6;;;2.9;;
4325;SDS011;58429;49.826;10.880;2022-08-21T05:11:54;7.6;;;2.9;;
4325;SDS011;58429;49.826;10.880;2022-08-21T05:12:54;8;;;3.1;;
4325;SDS011;58429;49.826;10.880;2022-08-21T05:13:54;8;;;3.1;;
4325;SDS011;58429;49.826;10.880;2022-08-21T05:14:54;8;;;3.1;;
4325;SDS011;58429;49.826;10.880;2022-08-21T05:15:54;7.5;;;2.6;;
4325;SDS011;58429;49.826;10.880;2022-08-21T05:16:54;7.5;;;2.6;;
4325;SDS011;58429;49.826;10.880;2022-08-21T05:17:54;7.5;;;2.6;;
4325;SDS011;58429;49.826;10.880;2022-08-21T05:18:54;7.5;;;2.6;;
4325;SDS011;58429;49.826;10.880;2022-08-21T05:19:54;7.3;;;2.9;;
4325;SDS011;58429;49.826;10.880;2022-08-21T05:20:54;7.3;;;2.9;;
4325;SDS011;58429;49.826;10.880;2022-08-21T05:21:54;7.3;;;2.9;;
4325;SDS011;58429;49.826;10.880;2022-08-21T05:22:54;7.7;;;2.8;;
4325;SDS011;58429;49.826;10.880;2022-08-21T05:23:54;7.7;;;2.8;;
4325;SDS011;58429;49.826;10.880;2022-08-21T05:24:54;7.7;;;2.8;;
4325;SDS011;58429;49.826;10.880;2022-08-21T05:25:54;8.2;;;3;;
4325;SDS011;58429;49.826;10.880;2022-08-21T05:26:54;8.2;;;3;;
4325;SDS011;58429;49.826;10.880;2022-08-21T05:27:54;8.2;;;3;;
4325;SDS011;58429;49.826;10.880;2022-08-21T05:28:54;8.5;;;3.2;;
4325;SDS011;58429;49.826;10.880;2022-08-21T05:29:54;8.5;;;3.2;;
4325;SDS011;58429;49.826;10.880;2022-08-21T05:30:54;8.5;;;3.2;;
4325;SDS011;58429;49.826;10.880;2022-08-21T05:31:54;7.9;;;2.7;;
4325;SDS011;58429;49.826;10.880;2022-08-21T05:32:56;7.9;;;2.7;;
4325;SDS011;58429;49.826;10.880;2022-08-21T05:33:54;7.9;;;2.7;;
4325;SDS011;58429;49.826;10.880;2022-08-21T05:34:54;8.7;;;3.3;;
4325;SDS011;58429;49.826;10.880;2022-08-21T05:35:54;8.7;;;3.3;;
4325;SDS011;58429;49.826;10.880;2022-08-21T05:36:54;8.7;;;3.3;;
4325;SDS011;58429;49.826;10.880;2022-08-21T05:37:54;7.4;;;2.4;;
4325;SDS011;58429;49.826;10.880;2022-08-21T05:38:54;7.4;;;2.4;;
4325;SDS011;58429;49.826;10.880;2022-08-21T05:39:54;7.4;;;2.4;;
4325;SDS011;58429;49.826;10.880;2022-08-21T05:40:54;8.1;;;3;;
4325;SDS011;58429;49.826;10.880;2022-08-21T05:41:54;8.1;;;3;;
4325;SDS011;58429;49.826;10.880;2022-08-21T05:42:54;8.1;;;3;;
4325;SDS011;58429;49.826;10.880;2022-08-21T05:43:54;8.2;;;2.7;;
4325;SDS011;58429;49.826;10.880;2022-08-21T05:44:54;8.2;;;2.7;;
4325;SDS011;58429;49.826;10.880;2022-08-21T05:45:54;8.2;;;2.7;;
4325;SDS011;58429;49.826;10.880;2022-08-21T05:46:54;8.4;;;3.1;;
4325;SDS011;58429;49.826;10.880;2022-08-21T05:47:54;8.4;;;3.1;;
4325;SDS011;58429;49.826;10.880;2022-08-21T05:48:54;8.4;;;3.1;;
4325;SDS011;58429;49.826;10.880;2022-08-21T05:49:54;8.6;;;2.8;;
4325;SDS011;58429;49.826;10.880;2022-08-21T05:50:54;8.6;;;2.8;;
4325;SDS011;58429;49.826;10.880;2022-08-21T05:51:54;8.6;;;2.8;;
4325;SDS011;58429;49.826;10.880;2022-08-21T05:52:54;7.9;;;2.6;;
4325;SDS011;58429;49.826;10.880;2022-08-21T05:53:54;7.9;;;2.6;;
4325;SDS011;58429;49.826;10.880;2022-08-21T05:54:54;7.9;;;2.6;;
4325;SDS011;58429;49.826;10.880;2022-08-21T05:55:54;8.4;;;2.8;;
4325;SDS011;58429;49.826;10.880;2022-08-21T05:56:54;8.4;;;2.8;;
4325;SDS011;58429;49.826;10.880;2022-08-21T05:57:54;8.4;;;2.8;;
4325;SDS011;58429;49.826;10.880;2022-08-21T05:58:54;8.4;;;2.9;;
4325;SDS011;58429;49.826;10.880;2022-08-21T05:59:54;8.4;;;2.9;;
4325;SDS011;58429;49.826;10.880;2022-08-21T06:00:54;8.4;;;2.9;;
4325;SDS011;58429;49.826;10.880;2022-08-21T06:01:54;8.4;;;3;;
4325;SDS011;58429;49.826;10.880;2022-08-21T06:02:54;8.4;;;3;;
4325;SDS011;58429;49.826;10.880;2022-08-21T06:03:54;8.4;;;3;;
4325;SDS011;58429;49.826;10.880;2022-08-21T06:04:55;7.1;;;2.4;;
4325;SDS011;58429;49.826;10.880;2022-08-21T06:05:54;7.1;;;2.4;;
4325;SDS011;58429;49.826;10.880;2022-08-21T06:06:54;7.1;;;2.4;;
4325;SDS011;58429;49.826;10.880;2022-08-21T06:07:54;6.9;;;2.2;;
4325;SDS011;58429;49.826;10.880;2022-08-21T06:08:54;6.9;;;2.2;;
4325;SDS011;58429;49.826;10.880;2022-08-21T06:09:54;6.9;;;2.2;;
4325;SDS011;58429;49.826;10.880;2022-08-21T06:10:55;7.6;;;2.5;;
4325;SDS011;58429;49.826;10.880;2022-08-21T06:11:54;7.6;;;2.5;;
4325;SDS011;58429;49.826;10.880;2022-08-21T06:12:54;7.6;;;2.5;;
4325;SDS011;58429;49.826;10.880;2022-08-21T06:13:54;7;;;2.3;;
4325;SDS011;58429;49.826;10.880;2022-08-21T06:14:54;7;;;2.3;;